Time;durP1;ratioP1;P1;durP2;ratioP2;P2;SDS_P1;SDS_P2;PMS_P1;PMS_P2;Temp;Humidity;BMP_temperature;BMP_pressure;BME280_temperature;BME280_humidity;BME280_pressure;Samples;Min_cycle;Max_cycle;Signal;HPM_P1;HPM_P2
2022/01/25 00:08:39;;;;;;;82.55;36.97;;;;;;;-6.50;88.41;102125.91;5096525;28;20047;-80
2022/01/25 00:25:10;;;;;;;87.32;37.25;;;;;;;-6.56;87.39;102119.56;5096941;28;20062;-79
2022/01/25 00:27:50;;;;;;;77.28;34.88;;;;;;;-6.55;88.05;102127.44;5114611;28;20048;-79
2022/01/25 00:30:29;;;;;;;84.10;35.70;;;;;;;-6.55;88.53;102119.66;5114817;28;20078;-80
2022/01/25 00:32:58;;;;;;;87.35;36.45;;;;;;;-6.62;88.22;102109.84;5114508;28;20094;-80
2022/01/25 00:35:26;;;;;;;85.95;36.58;;;;;;;-6.63;88.52;102123.66;5114277;28;20087;-78
2022/01/25 00:37:54;;;;;;;86.18;37.85;;;;;;;-6.66;87.93;102126.09;5114676;28;20051;-80
2022/01/25 00:40:23;;;;;;;85.63;37.15;;;;;;;-6.73;87.99;102119.81;5114416;28;20040;-79
2022/01/25 00:42:53;;;;;;;85.90;37.22;;;;;;;-6.71;88.28;102117.28;5114381;28;20180;-80
2022/01/25 00:45:22;;;;;;;102.32;39.28;;;;;;;-6.63;87.45;102118.47;5114695;28;20055;-79
2022/01/25 00:47:51;;;;;;;90.45;40.47;;;;;;;-6.53;85.55;102115.41;5114276;28;20048;-78
2022/01/25 00:50:20;;;;;;;87.05;38.15;;;;;;;-6.47;85.14;102109.53;5114351;28;20124;-73
2022/01/25 00:55:35;;;;;;;93.68;39.60;;;;;;;-6.72;88.26;102108.59;5114004;28;20101;-78
2022/01/25 00:58:04;;;;;;;92.07;39.85;;;;;;;-6.77;88.21;102109.22;5114091;28;20040;-78
2022/01/25 01:00:33;;;;;;;101.43;39.60;;;;;;;-6.89;88.72;102106.16;5113940;28;20481;-79
2022/01/25 01:03:01;;;;;;;92.15;37.60;;;;;;;-6.90;88.86;102104.38;5114409;28;20477;-78
2022/01/25 01:05:30;;;;;;;91.57;39.03;;;;;;;-6.68;87.43;102105.28;5113938;28;20066;-78
2022/01/25 01:08:16;;;;;;;97.05;39.78;;;;;;;-6.87;87.48;102097.59;5114414;28;20097;-78
2022/01/25 01:10:44;;;;;;;83.22;36.63;;;;;;;-6.90;88.88;102097.50;5113957;28;20047;-78
2022/01/25 01:13:47;;;;;;;79.88;34.80;;;;;;;-6.88;90.62;102093.25;5114246;28;20040;-78
2022/01/25 01:16:38;;;;;;;77.45;33.72;;;;;;;-6.90;91.22;102088.81;5114243;28;20400;-78
2022/01/25 01:30:26;;;;;;;71.68;29.88;;;;;;;-6.73;92.44;102080.00;5113247;28;20484;-75
2022/01/25 01:33:26;;;;;;;71.22;31.88;;;;;;;-6.45;90.09;102066.38;5113537;28;20130;-74
2022/01/25 01:41:51;;;;;;;82.80;35.67;;;;;;;-6.70;87.22;102054.16;5079699;28;20079;-76
2022/01/25 01:44:22;;;;;;;81.25;35.72;;;;;;;-6.87;89.77;102057.81;5113834;28;20050;-75
2022/01/25 01:47:06;;;;;;;74.85;31.70;;;;;;;-6.99;91.63;102051.31;5113553;28;20035;-76
2022/01/25 01:49:40;;;;;;;71.68;31.58;;;;;;;-6.98;93.15;102042.69;5113333;28;20039;-76
2022/01/25 01:52:10;;;;;;;69.13;30.40;;;;;;;-7.08;93.47;102032.78;5113411;28;20534;-74
2022/01/25 01:54:39;;;;;;;66.32;30.42;;;;;;;-6.93;93.51;102046.38;5112898;28;20039;-75
2022/01/25 01:57:09;;;;;;;69.20;29.77;;;;;;;-6.90;93.33;102040.41;5113473;28;20048;-79
2022/01/25 01:59:37;;;;;;;74.72;32.38;;;;;;;-6.88;92.93;102035.28;5113055;28;20094;-79
2022/01/25 02:02:07;;;;;;;75.22;32.65;;;;;;;-6.89;92.24;102030.91;5113248;28;20054;-78
2022/01/25 02:04:37;;;;;;;74.90;32.08;;;;;;;-6.85;92.29;102033.72;5113283;28;20123;-78
2022/01/25 02:07:05;;;;;;;76.80;32.35;;;;;;;-6.94;92.64;102035.94;5113420;28;20040;-78
2022/01/25 02:09:34;;;;;;;67.85;30.17;;;;;;;-6.93;93.07;102033.41;5113208;28;20039;-80
2022/01/25 02:12:02;;;;;;;72.75;32.55;;;;;;;-7.01;92.45;102026.13;5113465;28;20040;-79
2022/01/25 02:14:33;;;;;;;76.38;34.63;;;;;;;-7.05;92.49;102030.31;5112787;28;20122;-80
2022/01/25 02:17:09;;;;;;;77.78;33.15;;;;;;;-7.16;92.67;102035.91;5113581;28;20519;-82
2022/01/25 02:22:34;;;;;;;75.47;32.65;;;;;;;-7.13;93.83;102023.06;5113212;28;20052;-78
2022/01/25 02:25:03;;;;;;;65.93;29.40;;;;;;;-7.07;94.82;102013.81;5113401;28;20425;-85
2022/01/25 02:27:32;;;;;;;68.93;29.88;;;;;;;-7.12;94.51;102014.47;5112891;28;20489;-85
2022/01/25 02:30:00;;;;;;;64.57;27.55;;;;;;;-7.13;94.46;102005.81;5113212;28;20047;-84
2022/01/25 02:32:28;;;;;;;59.53;26.20;;;;;;;-7.09;94.13;102001.59;5113385;28;20145;-84
2022/01/25 02:35:02;;;;;;;62.45;25.75;;;;;;;-7.00;93.79;102007.16;5113244;28;20054;-80
2022/01/25 02:37:31;;;;;;;59.30;27.25;;;;;;;-7.03;93.84;102001.84;5116100;28;20436;-84
2022/01/25 02:40:00;;;;;;;60.08;25.52;;;;;;;-7.00;95.08;101989.88;5113227;28;20040;-85
2022/01/25 02:42:28;;;;;;;56.33;26.85;;;;;;;-7.00;95.18;101996.78;5114393;28;20039;-80
2022/01/25 02:44:56;;;;;;;58.80;25.10;;;;;;;-6.94;95.60;101990.13;5117131;28;20469;-80
2022/01/25 02:50:12;;;;;;;52.50;24.75;;;;;;;-6.89;95.32;101984.22;5117346;28;20123;-81
2022/01/25 02:52:40;;;;;;;56.40;27.60;;;;;;;-6.93;94.83;101985.81;5116608;28;20051;-81
2022/01/25 02:55:09;;;;;;;70.07;28.83;;;;;;;-7.00;94.60;101978.63;5116855;28;20035;-80
2022/01/25 02:57:38;;;;;;;67.18;29.20;;;;;;;-6.99;94.90;101978.69;5116539;28;20039;-80
2022/01/25 03:00:08;;;;;;;67.28;29.52;;;;;;;-7.00;95.29;101976.91;5098617;28;20105;-81
2022/01/25 03:02:37;;;;;;;65.25;28.73;;;;;;;-7.00;95.25;101971.72;5118533;28;20395;-82
2022/01/25 03:05:05;;;;;;;68.18;29.77;;;;;;;-6.99;95.52;101973.47;5116408;28;20047;-83
2022/01/25 03:07:38;;;;;;;72.07;30.42;;;;;;;-7.01;95.14;101977.75;5116280;28;20468;-83
2022/01/25 03:10:07;;;;;;;72.85;31.70;;;;;;;-7.10;93.79;101972.19;5116762;28;20040;-79
2022/01/25 03:12:42;;;;;;;73.10;33.22;;;;;;;-7.11;93.05;101969.53;5115980;28;20097;-79
2022/01/25 03:15:29;;;;;;;67.45;30.05;;;;;;;-7.15;94.86;101960.75;5116585;28;20455;-81
2022/01/25 03:18:01;;;;;;;63.13;27.75;;;;;;;-7.07;95.77;101961.03;5116330;28;20069;-82
2022/01/25 03:20:48;;;;;;;63.15;28.00;;;;;;;-7.03;96.05;101963.84;5116480;28;20067;-82
2022/01/25 03:23:20;;;;;;;62.35;27.52;;;;;;;-7.01;96.36;101959.59;5116460;28;20124;-82
2022/01/25 03:25:50;;;;;;;60.03;25.83;;;;;;;-7.04;96.49;101962.06;5116113;28;20036;-80
2022/01/25 03:28:20;;;;;;;58.80;27.10;;;;;;;-7.08;96.68;101957.56;5116396;28;20043;-82
2022/01/25 03:30:49;;;;;;;60.97;26.92;;;;;;;-7.16;97.99;101948.59;5115917;28;20047;-81
2022/01/25 03:33:22;;;;;;;56.70;25.00;;;;;;;-7.13;98.67;101953.94;5116264;28;20136;-81
2022/01/25 03:35:50;;;;;;;61.55;25.67;;;;;;;-7.12;98.30;101949.63;5097874;28;20044;-81
2022/01/25 03:38:20;;;;;;;53.97;24.88;;;;;;;-7.22;99.11;101945.78;5116094;28;20473;-81
2022/01/25 03:40:49;;;;;;;55.45;24.50;;;;;;;-7.25;100.00;101946.53;5115746;28;20092;-82
2022/01/25 03:43:18;;;;;;;56.20;25.00;;;;;;;-7.20;99.91;101946.72;5115942;28;20046;-82
2022/01/25 03:45:58;;;;;;;55.15;24.38;;;;;;;-7.19;100.00;101943.31;5115395;28;20071;-83
2022/01/25 03:51:13;;;;;;;49.33;22.55;;;;;;;-7.21;100.00;101937.19;5115970;28;20040;-79
2022/01/25 03:53:42;;;;;;;51.50;21.17;;;;;;;-7.11;100.00;101926.34;5114604;28;20047;-78
2022/01/25 03:56:11;;;;;;;49.05;21.08;;;;;;;-7.13;100.00;101928.00;5115702;28;20118;-78
2022/01/25 03:58:39;;;;;;;51.53;22.23;;;;;;;-7.15;100.00;101918.38;5115406;28;20134;-79
2022/01/25 04:01:07;;;;;;;50.20;22.40;;;;;;;-7.08;100.00;101920.38;5115556;28;20040;-79
2022/01/25 04:03:42;;;;;;;50.03;21.48;;;;;;;-7.06;100.00;101909.22;5114942;28;20040;-79
2022/01/25 04:06:10;;;;;;;45.78;20.65;;;;;;;-7.00;100.00;101916.38;5115739;28;20133;-81
2022/01/25 04:08:39;;;;;;;46.05;19.58;;;;;;;-6.95;100.00;101904.44;5115192;28;20047;-81
2022/01/25 04:11:08;;;;;;;37.92;18.50;;;;;;;-6.73;100.00;101913.91;5115149;28;20043;-76
2022/01/25 04:13:36;;;;;;;43.25;18.73;;;;;;;-6.84;100.00;101895.34;5115037;28;20063;-77
2022/01/25 04:16:11;;;;;;;37.55;16.77;;;;;;;-6.71;100.00;101901.88;5114986;28;20063;-76
2022/01/25 04:19:03;;;;;;;34.88;17.23;;;;;;;-6.68;99.68;101896.78;5114876;28;20405;-81
2022/01/25 04:24:42;;;;;;;35.40;16.75;;;;;;;-6.63;98.81;101895.25;5115409;28;20047;-80
2022/01/25 04:25:01;;;;;;;36.08;17.25;;;;;;;-6.48;97.67;101893.16;5115214;28;20040;-78
2022/01/25 04:27:32;;;;;;;36.95;16.95;;;;;;;-6.41;96.93;101882.19;5115071;28;20040;-81
2022/01/25 04:30:01;;;;;;;37.88;16.80;;;;;;;-6.32;95.86;101871.22;5114637;28;20046;-81
2022/01/25 04:32:41;;;;;;;38.40;17.67;;;;;;;-6.11;94.63;101881.44;5115321;28;20159;-80
2022/01/25 04:35:24;;;;;;;32.70;15.70;;;;;;;-6.07;94.10;101876.41;5115073;28;20118;-78
2022/01/25 04:49:07;;;;;;;38.30;16.73;;;;;;;-5.67;90.03;101864.66;5114213;28;20071;-80
2022/01/25 04:54:28;;;;;;;35.88;16.73;;;;;;;-5.56;89.41;101854.59;5112820;28;20062;-79
2022/01/25 04:57:07;;;;;;;41.50;17.98;;;;;;;-5.44;89.67;101847.16;5114600;28;20039;-80
2022/01/25 04:59:43;;;;;;;38.78;18.13;;;;;;;-5.45;88.88;101849.72;5114375;28;20040;-80
2022/01/25 05:02:15;;;;;;;39.80;18.25;;;;;;;-5.33;88.78;101842.28;5114605;28;20046;-79
2022/01/25 05:04:50;;;;;;;39.60;18.67;;;;;;;-5.33;87.95;101843.16;5114080;28;20035;-79
2022/01/25 05:07:29;;;;;;;40.63;18.42;;;;;;;-5.39;88.40;101830.00;5114322;28;20438;-79
2022/01/25 05:09:58;;;;;;;41.95;18.92;;;;;;;-5.35;88.96;101824.03;5113554;28;20050;-79
2022/01/25 05:12:37;;;;;;;43.75;19.05;;;;;;;-5.32;89.07;101820.63;5113899;28;20540;-79
2022/01/25 05:15:48;;;;;;;42.95;19.70;;;;;;;-5.31;89.27;101819.78;5113970;28;20100;-78
2022/01/25 05:18:22;;;;;;;47.17;19.25;;;;;;;-5.25;89.44;101813.06;5114639;28;20051;-79
2022/01/25 05:23:38;;;;;;;43.75;18.90;;;;;;;-5.14;88.98;101813.38;5114100;28;20475;-78
2022/01/25 05:26:06;;;;;;;42.22;19.55;;;;;;;-5.14;89.01;101809.88;5113545;28;20040;-78
2022/01/25 05:28:36;;;;;;;39.50;18.83;;;;;;;-5.06;88.93;101824.00;5113971;28;20130;-78
2022/01/25 05:31:07;;;;;;;48.58;20.35;;;;;;;-5.02;88.88;101818.94;5113504;28;20048;-78
2022/01/25 05:33:36;;;;;;;45.90;20.73;;;;;;;-5.05;88.13;101807.53;5113892;28;20048;-78
2022/01/25 05:36:06;;;;;;;54.65;24.48;;;;;;;-5.05;87.48;101818.81;5113498;28;20047;-79
2022/01/25 05:38:35;;;;;;;58.00;25.48;;;;;;;-4.83;85.33;101811.59;5113452;28;20070;-79
2022/01/25 05:41:04;;;;;;;53.13;24.17;;;;;;;-4.99;85.71;101811.22;5113118;28;20047;-80
2022/01/25 05:46:32;;;;;;;52.50;24.15;;;;;;;-5.06;86.49;101808.38;5113798;28;20122;-81
2022/01/25 05:49:00;;;;;;;56.10;22.30;;;;;;;-4.98;86.80;101806.88;5113324;28;20069;-80
2022/01/25 05:51:28;;;;;;;49.17;24.13;;;;;;;-5.01;85.61;101806.81;5113510;28;20067;-81
2022/01/25 05:53:57;;;;;;;51.88;23.88;;;;;;;-4.93;85.66;101806.16;5113272;28;20061;-82
2022/01/25 05:56:25;;;;;;;51.15;23.73;;;;;;;-4.95;85.72;101812.16;5113564;28;20039;-81
2022/01/25 05:58:53;;;;;;;50.90;24.15;;;;;;;-4.90;85.30;101807.97;5113188;28;20062;-81
2022/01/25 06:01:23;;;;;;;55.15;24.17;;;;;;;-4.94;84.91;101814.81;5113072;28;20093;-76
2022/01/25 06:03:53;;;;;;;50.95;24.17;;;;;;;-5.02;84.71;101816.34;5113431;28;20090;-78
2022/01/25 06:06:22;;;;;;;55.80;25.67;;;;;;;-4.84;82.74;101815.06;5113486;28;20073;-79
2022/01/25 06:08:50;;;;;;;59.20;25.17;;;;;;;-4.95;81.82;101812.16;5112784;28;20040;-77
2022/01/25 06:11:20;;;;;;;54.33;25.02;;;;;;;-5.02;82.33;101810.22;5113352;28;20044;-77
2022/01/25 06:13:48;;;;;;;56.58;24.67;;;;;;;-5.04;83.57;101812.78;5113070;28;20040;-78
2022/01/25 06:16:17;;;;;;;59.22;24.90;;;;;;;-5.14;84.78;101805.56;5113205;28;20051;-78
2022/01/25 06:18:46;;;;;;;55.95;24.40;;;;;;;-5.18;86.42;101788.13;5117115;28;20528;-78
2022/01/25 06:21:15;;;;;;;59.38;24.27;;;;;;;-5.18;87.64;101799.41;5117438;28;20085;-80
2022/01/25 06:23:43;;;;;;;54.78;23.02;;;;;;;-5.16;88.29;101801.16;5117130;28;20043;-79
2022/01/25 06:26:11;;;;;;;53.08;24.63;;;;;;;-5.15;88.39;101795.13;5117182;28;20035;-79
2022/01/25 06:28:40;;;;;;;48.03;22.33;;;;;;;-5.12;88.22;101792.59;5117055;28;20124;-79
2022/01/25 06:31:08;;;;;;;44.22;21.40;;;;;;;-5.06;88.05;101783.25;5116753;28;20071;-78
2022/01/25 06:33:38;;;;;;;47.15;21.20;;;;;;;-4.86;87.22;101790.72;5117065;28;20065;-78
2022/01/25 06:36:08;;;;;;;46.80;20.85;;;;;;;-4.81;86.99;101790.00;5116649;28;20044;-79
2022/01/25 06:38:38;;;;;;;46.50;20.40;;;;;;;-4.68;86.58;101786.00;5117203;28;20410;-80
2022/01/25 06:41:09;;;;;;;41.40;20.45;;;;;;;-4.59;85.88;101786.25;5116754;28;20057;-78
2022/01/25 06:43:38;;;;;;;43.00;20.17;;;;;;;-4.67;86.49;101786.03;5117126;28;20051;-78
2022/01/25 06:46:06;;;;;;;42.05;20.17;;;;;;;-4.73;86.63;101778.09;5116349;28;20040;-79
2022/01/25 06:48:35;;;;;;;41.83;19.38;;;;;;;-4.72;87.33;101786.78;5116834;28;20077;-79
2022/01/25 06:51:03;;;;;;;45.40;20.92;;;;;;;-4.68;86.83;101802.50;5116235;28;20048;-76
2022/01/25 06:53:33;;;;;;;45.35;19.77;;;;;;;-4.75;87.46;101795.34;5116565;28;20039;-80
2022/01/25 06:56:01;;;;;;;42.47;18.85;;;;;;;-4.76;87.84;101796.19;5116271;28;20048;-79
2022/01/25 06:58:30;;;;;;;45.17;20.77;;;;;;;-4.67;88.02;101788.63;5116486;28;20442;-79
2022/01/25 07:00:59;;;;;;;44.33;19.60;;;;;;;-4.45;87.09;101783.97;5116391;28;20434;-80
2022/01/25 07:03:27;;;;;;;46.88;19.83;;;;;;;-4.41;86.35;101783.22;5116262;28;20039;-79
2022/01/25 07:05:56;;;;;;;42.65;20.63;;;;;;;-4.44;86.72;101781.44;5115974;28;20048;-78
2022/01/25 07:08:24;;;;;;;46.85;19.95;;;;;;;-4.30;85.70;101781.75;5116508;28;20422;-77
2022/01/25 07:10:55;;;;;;;37.88;18.98;;;;;;;-4.43;86.60;101772.78;5113194;28;20122;-79
2022/01/25 07:13:24;;;;;;;43.17;19.35;;;;;;;-4.45;86.89;101769.22;5114791;28;20046;-79
2022/01/25 07:15:52;;;;;;;40.83;19.02;;;;;;;-4.32;86.03;101773.91;5116107;28;20032;-84
2022/01/25 07:18:21;;;;;;;47.30;19.50;;;;;;;-4.33;85.84;101779.97;5097559;28;20075;-77
2022/01/25 07:20:49;;;;;;;40.90;19.08;;;;;;;-4.24;85.89;101771.50;5115725;28;20063;-78
2022/01/25 07:23:17;;;;;;;46.28;18.67;;;;;;;-4.28;86.06;101787.88;5115573;28;20176;-78
2022/01/25 07:25:46;;;;;;;41.90;18.48;;;;;;;-4.33;85.72;101784.31;5115545;28;20043;-78
2022/01/25 07:28:16;;;;;;;45.45;20.05;;;;;;;-4.39;87.03;101786.75;5114225;28;20584;-79
2022/01/25 07:30:47;;;;;;;42.58;19.23;;;;;;;-4.20;86.40;101791.56;5114976;28;20094;-78
2022/01/25 07:33:22;;;;;;;42.80;18.88;;;;;;;-4.16;86.34;101785.56;5115482;28;20048;-78
2022/01/25 07:35:58;;;;;;;38.45;18.42;;;;;;;-4.09;85.95;101787.47;5115058;28;20051;-74
2022/01/25 07:38:26;;;;;;;42.22;19.52;;;;;;;-4.12;85.94;101787.41;5115239;28;20035;-73
2022/01/25 07:40:56;;;;;;;45.10;19.52;;;;;;;-4.20;86.63;101778.53;5116918;28;20127;-80
2022/01/25 07:43:26;;;;;;;44.40;19.30;;;;;;;-4.10;86.74;101790.06;5115055;28;20040;-78
2022/01/25 07:46:06;;;;;;;42.03;19.17;;;;;;;-4.20;86.37;101791.56;5114144;28;20043;-71
2022/01/25 07:48:35;;;;;;;37.78;18.15;;;;;;;-4.11;86.95;101790.91;5115367;28;20071;-78
2022/01/25 07:51:09;;;;;;;39.60;18.25;;;;;;;-4.00;86.63;101783.34;5114520;28;20118;-76
2022/01/25 07:53:38;;;;;;;42.40;19.75;;;;;;;-3.94;85.99;101783.50;5115288;28;20116;-69
2022/01/25 07:56:06;;;;;;;44.90;20.95;;;;;;;-3.83;85.61;101776.78;5114763;28;20400;-75
2022/01/25 07:58:36;;;;;;;43.42;20.10;;;;;;;-3.82;85.72;101778.56;5097046;28;20059;-72
2022/01/25 08:01:05;;;;;;;43.97;20.02;;;;;;;-3.79;85.26;101768.19;5114812;28;20130;-73
2022/01/25 08:03:34;;;;;;;45.53;20.48;;;;;;;-3.64;84.97;101776.34;5097022;28;20059;-72
2022/01/25 08:06:02;;;;;;;42.83;20.17;;;;;;;-3.63;85.46;101770.28;5114426;28;20460;-72
2022/01/25 08:08:40;;;;;;;46.03;19.95;;;;;;;-3.52;84.24;101771.41;5115135;28;20040;-75
2022/01/25 08:11:11;;;;;;;45.05;19.95;;;;;;;-3.50;84.35;101772.31;5113923;28;20062;-84
2022/01/25 08:13:47;;;;;;;41.55;19.70;;;;;;;-3.42;83.66;101764.63;5114743;28;20122;-84
2022/01/25 08:16:19;;;;;;;46.53;20.35;;;;;;;-3.44;83.55;101765.47;5113440;28;20097;-78
2022/01/25 08:18:48;;;;;;;41.20;19.88;;;;;;;-3.43;84.05;101762.00;5114791;28;20490;-80
2022/01/25 08:21:26;;;;;;;45.88;20.13;;;;;;;-3.33;84.06;101769.16;5114503;28;20409;-82
2022/01/25 08:23:54;;;;;;;42.22;20.00;;;;;;;-3.22;83.74;101757.22;5114306;28;20533;-78
2022/01/25 08:26:28;;;;;;;44.03;20.50;;;;;;;-3.19;83.28;101755.53;5114286;28;20044;-78
2022/01/25 08:29:03;;;;;;;47.53;19.83;;;;;;;-3.11;82.96;101755.69;5113810;28;20039;-81
2022/01/25 08:31:34;;;;;;;43.00;19.63;;;;;;;-2.94;81.44;101754.28;5114093;28;20433;-81
2022/01/25 08:34:12;;;;;;;43.03;20.42;;;;;;;-3.00;81.90;101750.66;5114041;28;20120;-76
2022/01/25 08:36:47;;;;;;;45.17;19.30;;;;;;;-2.85;81.76;101743.13;5114423;28;20039;-76
2022/01/25 08:39:20;;;;;;;46.28;19.38;;;;;;;-2.75;81.53;101738.97;5114009;28;20093;-74
2022/01/25 08:41:51;;;;;;;41.35;20.08;;;;;;;-2.74;81.18;101736.38;5093190;28;20102;-73
2022/01/25 08:44:40;;;;;;;46.13;18.05;;;;;;;-2.68;80.91;101751.28;5087653;28;20105;-76
2022/01/25 08:47:12;;;;;;;43.65;19.05;;;;;;;-2.66;80.89;101745.22;5093349;28;20043;-81
2022/01/25 08:49:42;;;;;;;45.10;19.70;;;;;;;-2.58;80.67;101737.53;5093833;28;20078;-79
2022/01/25 08:52:13;;;;;;;39.75;18.77;;;;;;;-2.53;80.31;101742.81;5093300;28;20068;-76
2022/01/25 08:54:45;;;;;;;40.73;19.67;;;;;;;-2.53;80.72;101740.19;5093780;28;20044;-78
2022/01/25 08:57:31;;;;;;;47.33;19.25;;;;;;;-2.45;80.60;101742.09;5080563;28;20060;-77
2022/01/25 09:00:08;;;;;;;42.47;18.90;;;;;;;-2.34;79.51;101750.97;5092972;28;20050;-79
2022/01/25 09:02:37;;;;;;;46.20;19.95;;;;;;;-2.31;79.73;101758.03;5102282;28;20044;-78
2022/01/25 09:05:05;;;;;;;37.35;19.17;;;;;;;-2.27;79.57;101743.25;5113037;28;20055;-78
2022/01/25 09:07:34;;;;;;;43.60;19.83;;;;;;;-2.28;79.80;101731.91;5113832;28;20435;-78
2022/01/25 09:10:04;;;;;;;38.60;19.20;;;;;;;-2.16;79.34;101739.06;5112075;28;20046;-76
2022/01/25 09:12:32;;;;;;;45.35;19.50;;;;;;;-2.06;79.00;101733.13;5113449;28;20385;-75
2022/01/25 09:15:01;;;;;;;45.78;20.27;;;;;;;-1.93;78.65;101734.16;5113528;28;20032;-74
2022/01/25 09:17:31;;;;;;;41.28;18.60;;;;;;;-1.92;78.75;101736.84;5114090;28;20047;-75
2022/01/25 09:20:01;;;;;;;43.00;19.63;;;;;;;-1.94;78.40;101733.28;5095167;28;20100;-74
2022/01/25 09:22:30;;;;;;;43.30;19.60;;;;;;;-1.85;78.22;101732.53;5113682;28;20040;-75
2022/01/25 09:25:18;;;;;;;38.50;19.25;;;;;;;-1.58;77.77;101726.81;5113453;28;20044;-72
2022/01/25 09:27:48;;;;;;;42.38;19.65;;;;;;;-1.52;76.81;101721.66;5113546;28;20040;-75
2022/01/25 09:30:17;;;;;;;44.88;19.50;;;;;;;-1.50;77.02;101725.19;5112658;28;20044;-81
2022/01/25 09:32:47;;;;;;;46.83;20.40;;;;;;;-1.43;76.83;101724.41;5112788;28;20052;-82
2022/01/25 09:35:16;;;;;;;46.78;21.80;;;;;;;-1.35;76.71;101712.28;5113101;28;20061;-81
2022/01/25 09:37:46;;;;;;;44.40;20.60;;;;;;;-1.32;76.78;101703.59;5113334;28;20393;-80
2022/01/25 09:40:15;;;;;;;43.75;20.67;;;;;;;-1.35;76.97;101699.19;5112133;28;20050;-81
2022/01/25 09:42:44;;;;;;;45.70;21.40;;;;;;;-1.34;77.31;101706.19;5113159;28;20434;-75
2022/01/25 09:45:17;;;;;;;45.85;22.02;;;;;;;-1.24;76.98;101707.16;5113128;28;20039;-79
2022/01/25 09:47:47;;;;;;;48.97;21.20;;;;;;;-1.13;76.73;101689.84;5113152;28;20085;-79
2022/01/25 09:50:16;;;;;;;44.63;21.55;;;;;;;-1.07;76.50;101691.63;5112313;28;20047;-80
2022/01/25 09:52:44;;;;;;;49.60;22.52;;;;;;;-0.94;75.83;101690.91;5112127;28;20043;-80
2022/01/25 09:55:14;;;;;;;42.78;20.42;;;;;;;-0.90;75.55;101695.28;5112852;28;20046;-78
2022/01/25 09:57:43;;;;;;;50.65;22.33;;;;;;;-0.97;75.84;101680.38;5113419;28;20040;-80
2022/01/25 10:00:15;;;;;;;46.55;23.23;;;;;;;-0.97;76.38;101683.88;5114091;28;20058;-86
2022/01/25 10:02:54;;;;;;;42.58;21.92;;;;;;;-0.97;76.06;101670.78;5113103;28;20043;-82
2022/01/25 10:05:28;;;;;;;48.03;21.75;;;;;;;-0.87;76.35;101679.59;5112919;28;20122;-82
2022/01/25 10:07:58;;;;;;;54.35;22.02;;;;;;;-0.73;76.46;101678.00;5112936;28;20063;-79
2022/01/25 10:10:28;;;;;;;45.20;22.08;;;;;;;-0.68;76.32;101668.41;5111814;28;20483;-77
2022/01/25 10:13:07;;;;;;;51.22;23.48;;;;;;;-0.56;75.80;101667.66;5112693;28;20040;-83
2022/01/25 10:15:35;;;;;;;50.30;21.85;;;;;;;-0.42;75.21;101665.13;5112400;28;20062;-80
2022/01/25 10:18:17;;;;;;;46.75;22.20;;;;;;;-0.17;75.06;101661.81;5112700;28;20118;-76
2022/01/25 10:20:48;;;;;;;47.85;22.13;;;;;;;-0.15;74.53;101644.34;5112381;28;20043;-79
2022/01/25 10:23:19;;;;;;;47.58;20.70;;;;;;;-0.07;74.31;101647.88;5112615;28;20557;-79
2022/01/25 10:25:50;;;;;;;46.30;20.75;;;;;;;-0.05;75.02;101648.75;5111699;28;20555;-79
2022/01/25 10:28:24;;;;;;;43.60;20.88;;;;;;;0.12;74.26;101642.72;5112487;28;20039;-75
2022/01/25 10:30:54;;;;;;;46.85;21.55;;;;;;;0.13;74.04;101641.84;5111932;28;20054;-79
2022/01/25 10:33:28;;;;;;;51.22;22.38;;;;;;;0.19;74.37;101650.66;5112652;28;20055;-82
2022/01/25 10:35:59;;;;;;;45.58;20.88;;;;;;;0.17;74.38;101648.84;5112911;28;20545;-76
2022/01/25 10:38:30;;;;;;;52.30;21.85;;;;;;;0.24;74.59;101645.41;5112333;28;20109;-79
2022/01/25 10:41:04;;;;;;;46.78;22.42;;;;;;;0.28;74.29;101640.16;5112441;28;20062;-76
2022/01/25 10:43:34;;;;;;;47.38;21.70;;;;;;;0.38;73.80;101629.69;5112484;28;20044;-80
2022/01/25 10:46:11;;;;;;;47.20;22.38;;;;;;;0.33;74.09;101632.31;5112693;28;20400;-76
2022/01/25 10:48:45;;;;;;;49.40;22.02;;;;;;;0.37;74.15;101627.94;5112264;28;20071;-75
2022/01/25 10:51:15;;;;;;;54.45;23.10;;;;;;;0.56;73.53;101619.25;5111952;28;20044;-79
2022/01/25 10:53:44;;;;;;;55.95;26.48;;;;;;;0.57;73.15;101624.50;5112409;28;20047;-78
2022/01/25 10:56:12;;;;;;;46.88;24.20;;;;;;;0.63;73.44;101626.28;5112348;28;20044;-74
2022/01/25 10:58:43;;;;;;;42.10;21.25;;;;;;;0.63;73.32;101614.91;5094421;28;20059;-76
2022/01/25 11:01:12;;;;;;;50.15;22.50;;;;;;;0.60;73.31;101614.91;5112048;28;20127;-76
2022/01/25 11:03:44;;;;;;;50.13;22.95;;;;;;;0.65;74.00;101613.13;5114312;28;20481;-75
2022/01/25 11:06:15;;;;;;;51.60;22.83;;;;;;;0.69;73.89;101610.53;5116061;28;20044;-76
2022/01/25 11:08:46;;;;;;;48.00;22.30;;;;;;;0.78;73.28;101607.06;5115947;28;20036;-79
2022/01/25 11:11:24;;;;;;;48.58;23.17;;;;;;;0.82;73.82;101617.56;5115325;28;20476;-80
2022/01/25 11:13:54;;;;;;;54.33;23.15;;;;;;;0.85;73.83;101604.41;5116123;28;20077;-77
2022/01/25 11:16:22;;;;;;;45.60;22.17;;;;;;;1.01;73.33;101597.44;5115732;28;20544;-77
2022/01/25 11:18:57;;;;;;;49.13;22.50;;;;;;;1.08;73.25;101601.81;5116018;28;20040;-74
2022/01/25 11:21:26;;;;;;;56.78;23.45;;;;;;;1.12;73.23;101600.94;5115480;28;20306;-76
2022/01/25 11:23:56;;;;;;;46.25;23.73;;;;;;;1.17;73.22;101592.19;5115957;28;20043;-72
2022/01/25 11:26:25;;;;;;;43.75;22.42;;;;;;;1.18;73.08;101591.31;5115343;28;20036;-73
2022/01/25 11:28:53;;;;;;;47.00;23.27;;;;;;;1.13;73.33;101589.53;5115635;28;20040;-73
2022/01/25 11:31:24;;;;;;;54.97;24.65;;;;;;;1.09;73.42;101574.66;5096773;28;20039;-74
2022/01/25 11:33:54;;;;;;;52.47;23.20;;;;;;;1.20;73.54;101571.16;5116209;28;20131;-74
2022/01/25 11:36:24;;;;;;;48.90;24.15;;;;;;;1.23;73.23;101571.13;5115200;28;20074;-74
2022/01/25 11:38:53;;;;;;;47.72;22.55;;;;;;;1.20;73.78;101566.78;5115644;28;20047;-73
2022/01/25 11:41:24;;;;;;;50.08;23.23;;;;;;;1.16;73.78;101580.81;5114704;28;20050;-73
2022/01/25 11:44:10;;;;;;;47.75;23.52;;;;;;;1.17;74.53;101576.41;5115979;28;20039;-73
2022/01/25 11:46:40;;;;;;;48.25;22.98;;;;;;;1.22;74.72;101586.03;5115544;28;20044;-73
2022/01/25 11:49:16;;;;;;;46.63;22.45;;;;;;;1.31;74.07;101575.50;5115383;28;20118;-73
2022/01/25 11:52:03;;;;;;;48.33;22.60;;;;;;;1.34;74.29;101570.25;5114903;28;20043;-73
2022/01/25 11:54:32;;;;;;;46.28;21.70;;;;;;;1.59;73.28;101565.81;5114979;28;20084;-74
2022/01/25 11:57:11;;;;;;;37.45;19.90;;;;;;;1.80;75.32;101564.00;5115790;28;20484;-74
2022/01/25 11:59:40;;;;;;;37.60;18.58;;;;;;;1.64;76.40;101564.06;5115242;28;20040;-73
2022/01/25 12:02:11;;;;;;;31.23;15.73;;;;;;;1.53;77.43;101557.94;5114669;28;20050;-73
2022/01/25 12:04:44;;;;;;;36.50;17.42;;;;;;;1.49;77.75;101552.72;5114740;28;20065;-73
2022/01/25 12:07:24;;;;;;;35.93;19.57;;;;;;;1.67;77.23;101553.53;5097365;28;20062;-73
2022/01/25 12:10:04;;;;;;;37.15;17.25;;;;;;;1.69;77.98;101551.75;5115145;28;20468;-73
2022/01/25 12:12:33;;;;;;;39.45;18.60;;;;;;;1.66;78.50;101545.66;5114483;28;20085;-73
2022/01/25 12:15:17;;;;;;;40.33;19.20;;;;;;;1.70;78.42;101537.72;5114386;28;20047;-74
2022/01/25 12:17:47;;;;;;;36.22;18.25;;;;;;;1.67;78.78;101539.50;5115103;28;20503;-73
2022/01/25 12:20:22;;;;;;;35.00;18.15;;;;;;;1.57;80.31;101529.91;5114903;28;20070;-73
2022/01/25 12:23:09;;;;;;;32.03;16.15;;;;;;;1.57;81.07;101524.63;5115226;28;20040;-73
2022/01/25 12:25:48;;;;;;;40.90;18.35;;;;;;;1.55;81.55;101524.66;5114633;28;20482;-73
2022/01/25 12:28:37;;;;;;;36.45;17.80;;;;;;;1.64;82.00;101505.31;5114437;28;20378;-74
2022/01/25 12:31:15;;;;;;;35.22;17.17;;;;;;;1.90;82.30;101515.72;5114656;28;20092;-74
2022/01/25 12:33:46;;;;;;;39.40;17.23;;;;;;;1.97;83.27;101526.22;5096207;28;20078;-72
2022/01/25 12:36:14;;;;;;;31.05;14.32;;;;;;;1.93;84.29;101513.97;5114375;28;20122;-73
2022/01/25 12:38:47;;;;;;;27.52;14.27;;;;;;;1.92;85.42;101521.84;5114532;28;20184;-73
2022/01/25 12:41:16;;;;;;;28.75;13.00;;;;;;;1.78;87.81;101513.16;5113852;28;20052;-73